Terminal Aerodrome Forecast
Issued by NWS

Home | Current Version | Previous Version | Text Only | Print | Product List | Glossary On
Versions: 1 2 3 4 5 6 7 8 9 10 11 12 13 14
897
FTUS43 KDLH 221752
TAFBRD
TAF
KBRD 221752Z 2218/2318 14012KT P6SM SKC
     FM222100 16012G20KT P6SM VCSH SCT035 BKN090
     FM230000 15012KT 3SM -SHSN BKN025
     FM230900 16012G20KT P6SM VCSH BKN020=

USA.gov is the U.S. government's official web portal to all federal, state and local government web resources and services.